Goodville, Texas
Current Conditions -  °F | °C
As of 2:15 AM on Monday 22 Dec 2014 (Local Time) from KTPL Reporting Station
Overcast Overcast  
Wind Chill: 13°   Ceiling: 1500
Heat Index: 13°   Visibility: 10mi
Dew Point:   Wind: 12mph
Humidity: 77%   Direction: 180°S
Pressure: 29.74"   Gusts: NA
Location:  31.1912°N, 97.0719°W
Report Text: KTPL 220815Z AUTO 18010KT 10SM OVC015 13/09 A2974 RMK AO1
Loading
Personal Weather Stations






























Interactive Weather Map New forecast layout! Learn more

10-Day Weather Forecast

Advertisements
Track Severe Weather on mobile